sensor_id;sensor_type;location;lat;lon;timestamp;P1;durP1;ratioP1;P2;durP2;ratioP2
38358;SDS011;42072;48.044;14.416;2023-05-07T00:00:03;5.32;;;4.75;;
38358;SDS011;42072;48.044;14.416;2023-05-07T00:02:35;5.65;;;4.97;;
38358;SDS011;42072;48.044;14.416;2023-05-07T00:05:02;9.13;;;4.70;;
38358;SDS011;42072;48.044;14.416;2023-05-07T00:07:30;9.68;;;4.57;;
38358;SDS011;42072;48.044;14.416;2023-05-07T00:09:57;7.35;;;5.05;;
38358;SDS011;42072;48.044;14.416;2023-05-07T00:12:25;6.50;;;4.45;;
38358;SDS011;42072;48.044;14.416;2023-05-07T00:14:52;8.48;;;5.00;;
38358;SDS011;42072;48.044;14.416;2023-05-07T00:17:19;6.80;;;4.55;;
38358;SDS011;42072;48.044;14.416;2023-05-07T00:19:46;6.88;;;4.78;;
38358;SDS011;42072;48.044;14.416;2023-05-07T00:22:14;7.57;;;5.05;;
38358;SDS011;42072;48.044;14.416;2023-05-07T00:24:42;8.30;;;5.10;;
38358;SDS011;42072;48.044;14.416;2023-05-07T00:27:09;6.05;;;4.82;;
38358;SDS011;42072;48.044;14.416;2023-05-07T00:29:37;6.90;;;4.93;;
38358;SDS011;42072;48.044;14.416;2023-05-07T00:32:06;6.10;;;4.78;;
38358;SDS011;42072;48.044;14.416;2023-05-07T00:34:33;7.53;;;5.32;;
38358;SDS011;42072;48.044;14.416;2023-05-07T00:37:01;9.05;;;4.57;;
38358;SDS011;42072;48.044;14.416;2023-05-07T00:39:31;6.80;;;4.13;;
38358;SDS011;42072;48.044;14.416;2023-05-07T00:41:58;7.32;;;4.55;;
38358;SDS011;42072;48.044;14.416;2023-05-07T00:44:26;8.15;;;5.07;;
38358;SDS011;42072;48.044;14.416;2023-05-07T00:46:55;8.35;;;5.28;;
38358;SDS011;42072;48.044;14.416;2023-05-07T00:49:29;5.20;;;4.32;;
38358;SDS011;42072;48.044;14.416;2023-05-07T00:52:11;5.22;;;4.45;;
38358;SDS011;42072;48.044;14.416;2023-05-07T00:54:41;6.53;;;4.50;;
38358;SDS011;42072;48.044;14.416;2023-05-07T00:57:09;5.80;;;4.47;;
38358;SDS011;42072;48.044;14.416;2023-05-07T00:59:40;9.25;;;4.85;;
38358;SDS011;42072;48.044;14.416;2023-05-07T01:02:08;5.68;;;4.60;;
38358;SDS011;42072;48.044;14.416;2023-05-07T01:04:35;7.68;;;4.82;;
38358;SDS011;42072;48.044;14.416;2023-05-07T01:07:03;7.43;;;5.65;;
38358;SDS011;42072;48.044;14.416;2023-05-07T01:09:32;7.97;;;6.47;;
38358;SDS011;42072;48.044;14.416;2023-05-07T01:12:01;11.32;;;6.22;;
38358;SDS011;42072;48.044;14.416;2023-05-07T01:14:30;8.73;;;5.90;;
38358;SDS011;42072;48.044;14.416;2023-05-07T01:16:59;9.23;;;6.00;;
38358;SDS011;42072;48.044;14.416;2023-05-07T01:19:28;7.63;;;5.72;;
38358;SDS011;42072;48.044;14.416;2023-05-07T01:21:58;9.35;;;6.28;;
38358;SDS011;42072;48.044;14.416;2023-05-07T01:24:30;8.00;;;6.47;;
38358;SDS011;42072;48.044;14.416;2023-05-07T01:26:58;7.07;;;5.97;;
38358;SDS011;42072;48.044;14.416;2023-05-07T01:29:25;9.05;;;6.40;;
38358;SDS011;42072;48.044;14.416;2023-05-07T01:31:52;7.45;;;6.40;;
38358;SDS011;42072;48.044;14.416;2023-05-07T01:34:20;10.23;;;6.03;;
38358;SDS011;42072;48.044;14.416;2023-05-07T01:36:48;7.60;;;6.18;;
38358;SDS011;42072;48.044;14.416;2023-05-07T01:39:16;8.20;;;6.57;;
38358;SDS011;42072;48.044;14.416;2023-05-07T01:41:44;8.80;;;6.05;;
38358;SDS011;42072;48.044;14.416;2023-05-07T01:44:12;8.13;;;6.13;;
38358;SDS011;42072;48.044;14.416;2023-05-07T01:46:41;9.95;;;6.82;;
38358;SDS011;42072;48.044;14.416;2023-05-07T01:49:08;9.48;;;7.20;;
38358;SDS011;42072;48.044;14.416;2023-05-07T01:51:35;8.02;;;7.00;;
38358;SDS011;42072;48.044;14.416;2023-05-07T01:54:03;8.45;;;6.78;;
38358;SDS011;42072;48.044;14.416;2023-05-07T01:56:30;7.53;;;6.45;;
38358;SDS011;42072;48.044;14.416;2023-05-07T01:58:57;8.75;;;6.88;;
38358;SDS011;42072;48.044;14.416;2023-05-07T02:01:25;8.52;;;6.30;;
38358;SDS011;42072;48.044;14.416;2023-05-07T02:03:52;11.27;;;6.68;;
38358;SDS011;42072;48.044;14.416;2023-05-07T02:06:20;12.95;;;6.65;;
38358;SDS011;42072;48.044;14.416;2023-05-07T02:08:47;9.43;;;7.07;;
38358;SDS011;42072;48.044;14.416;2023-05-07T02:11:14;11.68;;;7.18;;
38358;SDS011;42072;48.044;14.416;2023-05-07T02:13:42;11.10;;;6.75;;
38358;SDS011;42072;48.044;14.416;2023-05-07T02:16:09;8.35;;;6.90;;
38358;SDS011;42072;48.044;14.416;2023-05-07T02:18:37;8.55;;;5.65;;
38358;SDS011;42072;48.044;14.416;2023-05-07T02:21:04;7.30;;;6.32;;
38358;SDS011;42072;48.044;14.416;2023-05-07T02:23:31;8.77;;;6.65;;
38358;SDS011;42072;48.044;14.416;2023-05-07T02:25:58;6.95;;;5.80;;
38358;SDS011;42072;48.044;14.416;2023-05-07T02:28:26;6.22;;;5.63;;
38358;SDS011;42072;48.044;14.416;2023-05-07T02:30:53;8.52;;;5.85;;
38358;SDS011;42072;48.044;14.416;2023-05-07T02:33:21;7.18;;;5.50;;
38358;SDS011;42072;48.044;14.416;2023-05-07T02:35:48;7.10;;;5.55;;
38358;SDS011;42072;48.044;14.416;2023-05-07T02:38:15;8.25;;;5.68;;
38358;SDS011;42072;48.044;14.416;2023-05-07T02:40:42;7.43;;;5.40;;
38358;SDS011;42072;48.044;14.416;2023-05-07T02:43:09;8.07;;;5.22;;
38358;SDS011;42072;48.044;14.416;2023-05-07T02:45:36;7.82;;;5.20;;
38358;SDS011;42072;48.044;14.416;2023-05-07T02:48:04;7.88;;;5.20;;
38358;SDS011;42072;48.044;14.416;2023-05-07T02:50:32;7.97;;;5.18;;
38358;SDS011;42072;48.044;14.416;2023-05-07T02:53:00;5.18;;;4.55;;
38358;SDS011;42072;48.044;14.416;2023-05-07T02:55:27;6.43;;;4.55;;
38358;SDS011;42072;48.044;14.416;2023-05-07T02:57:54;7.22;;;4.68;;
38358;SDS011;42072;48.044;14.416;2023-05-07T03:00:21;7.15;;;5.20;;
38358;SDS011;42072;48.044;14.416;2023-05-07T03:02:48;7.80;;;5.10;;
38358;SDS011;42072;48.044;14.416;2023-05-07T03:05:16;8.95;;;5.25;;
38358;SDS011;42072;48.044;14.416;2023-05-07T03:07:43;7.07;;;5.25;;
38358;SDS011;42072;48.044;14.416;2023-05-07T03:10:12;5.75;;;4.25;;
38358;SDS011;42072;48.044;14.416;2023-05-07T03:12:39;9.35;;;4.68;;
38358;SDS011;42072;48.044;14.416;2023-05-07T03:15:07;6.95;;;4.90;;
38358;SDS011;42072;48.044;14.416;2023-05-07T03:17:35;6.60;;;4.28;;
38358;SDS011;42072;48.044;14.416;2023-05-07T03:20:02;8.88;;;5.00;;
38358;SDS011;42072;48.044;14.416;2023-05-07T03:22:30;10.35;;;4.90;;
38358;SDS011;42072;48.044;14.416;2023-05-07T03:24:57;9.48;;;4.82;;
38358;SDS011;42072;48.044;14.416;2023-05-07T03:27:25;5.63;;;5.05;;
38358;SDS011;42072;48.044;14.416;2023-05-07T03:29:52;8.30;;;4.80;;
38358;SDS011;42072;48.044;14.416;2023-05-07T03:32:19;6.50;;;4.65;;
38358;SDS011;42072;48.044;14.416;2023-05-07T03:34:46;6.60;;;4.95;;
38358;SDS011;42072;48.044;14.416;2023-05-07T03:37:13;7.03;;;4.50;;
38358;SDS011;42072;48.044;14.416;2023-05-07T03:39:40;6.40;;;4.50;;
38358;SDS011;42072;48.044;14.416;2023-05-07T03:42:07;6.93;;;4.80;;
38358;SDS011;42072;48.044;14.416;2023-05-07T03:44:35;6.57;;;4.70;;
38358;SDS011;42072;48.044;14.416;2023-05-07T03:47:05;8.75;;;4.80;;
38358;SDS011;42072;48.044;14.416;2023-05-07T03:49:32;7.10;;;4.93;;
38358;SDS011;42072;48.044;14.416;2023-05-07T03:51:59;5.68;;;4.88;;
38358;SDS011;42072;48.044;14.416;2023-05-07T03:54:26;5.25;;;4.30;;
38358;SDS011;42072;48.044;14.416;2023-05-07T03:56:53;5.55;;;4.88;;
38358;SDS011;42072;48.044;14.416;2023-05-07T03:59:21;7.28;;;5.07;;
38358;SDS011;42072;48.044;14.416;2023-05-07T04:01:48;8.00;;;4.68;;
38358;SDS011;42072;48.044;14.416;2023-05-07T04:04:16;5.95;;;4.55;;
38358;SDS011;42072;48.044;14.416;2023-05-07T04:06:44;5.50;;;4.75;;
38358;SDS011;42072;48.044;14.416;2023-05-07T04:09:11;6.25;;;4.40;;
38358;SDS011;42072;48.044;14.416;2023-05-07T04:11:38;6.50;;;4.50;;
38358;SDS011;42072;48.044;14.416;2023-05-07T04:14:06;5.30;;;4.30;;
38358;SDS011;42072;48.044;14.416;2023-05-07T04:16:34;7.60;;;4.43;;
38358;SDS011;42072;48.044;14.416;2023-05-07T04:19:01;4.22;;;3.70;;
38358;SDS011;42072;48.044;14.416;2023-05-07T04:21:28;5.90;;;4.60;;
38358;SDS011;42072;48.044;14.416;2023-05-07T04:23:56;4.70;;;4.07;;
38358;SDS011;42072;48.044;14.416;2023-05-07T04:26:23;7.03;;;4.32;;
38358;SDS011;42072;48.044;14.416;2023-05-07T04:28:50;6.15;;;4.07;;
38358;SDS011;42072;48.044;14.416;2023-05-07T04:31:18;8.27;;;6.13;;
38358;SDS011;42072;48.044;14.416;2023-05-07T04:33:45;7.30;;;5.57;;
38358;SDS011;42072;48.044;14.416;2023-05-07T04:36:12;8.43;;;4.65;;
38358;SDS011;42072;48.044;14.416;2023-05-07T04:38:39;7.53;;;5.60;;
38358;SDS011;42072;48.044;14.416;2023-05-07T04:41:08;6.82;;;6.13;;
38358;SDS011;42072;48.044;14.416;2023-05-07T04:43:36;8.00;;;5.75;;
38358;SDS011;42072;48.044;14.416;2023-05-07T04:46:03;7.82;;;5.60;;
38358;SDS011;42072;48.044;14.416;2023-05-07T04:48:30;5.72;;;4.85;;
38358;SDS011;42072;48.044;14.416;2023-05-07T04:50:57;7.32;;;5.43;;
38358;SDS011;42072;48.044;14.416;2023-05-07T04:53:24;6.95;;;5.85;;
38358;SDS011;42072;48.044;14.416;2023-05-07T04:55:55;5.70;;;5.20;;
38358;SDS011;42072;48.044;14.416;2023-05-07T04:58:23;8.38;;;6.30;;
38358;SDS011;42072;48.044;14.416;2023-05-07T05:00:50;7.47;;;5.72;;
38358;SDS011;42072;48.044;14.416;2023-05-07T05:03:18;7.35;;;6.20;;
38358;SDS011;42072;48.044;14.416;2023-05-07T05:05:45;7.20;;;6.28;;
38358;SDS011;42072;48.044;14.416;2023-05-07T05:08:12;7.90;;;5.93;;
38358;SDS011;42072;48.044;14.416;2023-05-07T05:10:39;6.60;;;5.70;;
38358;SDS011;42072;48.044;14.416;2023-05-07T05:13:08;6.90;;;6.18;;
38358;SDS011;42072;48.044;14.416;2023-05-07T05:15:35;9.48;;;6.38;;
38358;SDS011;42072;48.044;14.416;2023-05-07T05:18:02;7.50;;;6.72;;
38358;SDS011;42072;48.044;14.416;2023-05-07T05:20:29;6.72;;;5.82;;
38358;SDS011;42072;48.044;14.416;2023-05-07T05:22:57;7.05;;;5.72;;
38358;SDS011;42072;48.044;14.416;2023-05-07T05:25:24;13.57;;;6.30;;
38358;SDS011;42072;48.044;14.416;2023-05-07T05:27:51;7.35;;;5.57;;
38358;SDS011;42072;48.044;14.416;2023-05-07T05:30:18;6.70;;;6.00;;
38358;SDS011;42072;48.044;14.416;2023-05-07T05:32:48;5.80;;;5.13;;
38358;SDS011;42072;48.044;14.416;2023-05-07T05:35:15;7.43;;;5.47;;
38358;SDS011;42072;48.044;14.416;2023-05-07T05:37:43;7.32;;;5.70;;
38358;SDS011;42072;48.044;14.416;2023-05-07T05:40:10;6.45;;;5.85;;
38358;SDS011;42072;48.044;14.416;2023-05-07T05:42:38;7.38;;;5.63;;
38358;SDS011;42072;48.044;14.416;2023-05-07T05:45:05;7.35;;;5.35;;
38358;SDS011;42072;48.044;14.416;2023-05-07T05:47:33;6.68;;;5.00;;
38358;SDS011;42072;48.044;14.416;2023-05-07T05:50:00;8.20;;;5.07;;
38358;SDS011;42072;48.044;14.416;2023-05-07T05:52:27;6.25;;;5.05;;
38358;SDS011;42072;48.044;14.416;2023-05-07T05:54:55;5.57;;;4.78;;
38358;SDS011;42072;48.044;14.416;2023-05-07T05:57:22;5.50;;;4.95;;
38358;SDS011;42072;48.044;14.416;2023-05-07T05:59:51;5.18;;;4.68;;
38358;SDS011;42072;48.044;14.416;2023-05-07T06:02:19;5.63;;;4.82;;
38358;SDS011;42072;48.044;14.416;2023-05-07T06:04:46;5.50;;;4.82;;
38358;SDS011;42072;48.044;14.416;2023-05-07T06:07:13;5.80;;;4.90;;
38358;SDS011;42072;48.044;14.416;2023-05-07T06:09:40;5.13;;;4.60;;
38358;SDS011;42072;48.044;14.416;2023-05-07T06:12:07;8.35;;;5.68;;
38358;SDS011;42072;48.044;14.416;2023-05-07T06:14:34;7.78;;;5.53;;
38358;SDS011;42072;48.044;14.416;2023-05-07T06:17:01;10.52;;;6.28;;
38358;SDS011;42072;48.044;14.416;2023-05-07T06:19:29;8.50;;;5.22;;
38358;SDS011;42072;48.044;14.416;2023-05-07T06:21:57;12.10;;;7.20;;
38358;SDS011;42072;48.044;14.416;2023-05-07T06:24:24;6.45;;;5.50;;
38358;SDS011;42072;48.044;14.416;2023-05-07T06:26:52;10.68;;;7.28;;
38358;SDS011;42072;48.044;14.416;2023-05-07T06:29:19;11.30;;;8.00;;
38358;SDS011;42072;48.044;14.416;2023-05-07T06:31:46;10.95;;;7.35;;
38358;SDS011;42072;48.044;14.416;2023-05-07T06:34:13;10.38;;;7.72;;
38358;SDS011;42072;48.044;14.416;2023-05-07T06:36:40;14.18;;;8.60;;
38358;SDS011;42072;48.044;14.416;2023-05-07T06:39:08;13.25;;;8.20;;
38358;SDS011;42072;48.044;14.416;2023-05-07T06:41:35;12.07;;;8.45;;
38358;SDS011;42072;48.044;14.416;2023-05-07T06:44:03;11.65;;;8.63;;
38358;SDS011;42072;48.044;14.416;2023-05-07T06:46:31;9.10;;;7.47;;
38358;SDS011;42072;48.044;14.416;2023-05-07T06:48:58;8.77;;;7.50;;
38358;SDS011;42072;48.044;14.416;2023-05-07T06:51:25;8.73;;;7.10;;
38358;SDS011;42072;48.044;14.416;2023-05-07T06:53:53;8.95;;;7.28;;
38358;SDS011;42072;48.044;14.416;2023-05-07T06:56:20;10.38;;;7.25;;
38358;SDS011;42072;48.044;14.416;2023-05-07T06:58:47;11.48;;;8.23;;
38358;SDS011;42072;48.044;14.416;2023-05-07T07:01:14;8.95;;;7.32;;
38358;SDS011;42072;48.044;14.416;2023-05-07T07:03:41;9.52;;;7.30;;
38358;SDS011;42072;48.044;14.416;2023-05-07T07:06:09;8.27;;;7.03;;
38358;SDS011;42072;48.044;14.416;2023-05-07T07:08:36;9.77;;;7.10;;
38358;SDS011;42072;48.044;14.416;2023-05-07T07:11:05;11.25;;;7.35;;
38358;SDS011;42072;48.044;14.416;2023-05-07T07:13:32;10.60;;;6.80;;
38358;SDS011;42072;48.044;14.416;2023-05-07T07:16:00;8.32;;;6.85;;
38358;SDS011;42072;48.044;14.416;2023-05-07T07:18:27;8.13;;;6.63;;
38358;SDS011;42072;48.044;14.416;2023-05-07T07:20:54;10.65;;;7.18;;
38358;SDS011;42072;48.044;14.416;2023-05-07T07:23:21;11.52;;;7.30;;
38358;SDS011;42072;48.044;14.416;2023-05-07T07:25:48;11.45;;;7.03;;
38358;SDS011;42072;48.044;14.416;2023-05-07T07:28:15;10.15;;;8.15;;
38358;SDS011;42072;48.044;14.416;2023-05-07T07:30:43;11.13;;;8.30;;
38358;SDS011;42072;48.044;14.416;2023-05-07T07:33:10;9.57;;;7.82;;
38358;SDS011;42072;48.044;14.416;2023-05-07T07:35:38;9.88;;;7.50;;
38358;SDS011;42072;48.044;14.416;2023-05-07T07:38:05;10.57;;;7.30;;
38358;SDS011;42072;48.044;14.416;2023-05-07T07:40:34;11.15;;;7.47;;
38358;SDS011;42072;48.044;14.416;2023-05-07T07:43:01;13.52;;;7.40;;
38358;SDS011;42072;48.044;14.416;2023-05-07T07:45:28;10.20;;;7.82;;
38358;SDS011;42072;48.044;14.416;2023-05-07T07:47:55;7.40;;;5.18;;
38358;SDS011;42072;48.044;14.416;2023-05-07T07:50:23;11.77;;;8.07;;
38358;SDS011;42072;48.044;14.416;2023-05-07T07:53:09;12.48;;;8.23;;
38358;SDS011;42072;48.044;14.416;2023-05-07T07:55:39;10.10;;;7.60;;
38358;SDS011;42072;48.044;14.416;2023-05-07T07:58:07;11.52;;;8.60;;
38358;SDS011;42072;48.044;14.416;2023-05-07T08:00:34;10.38;;;8.02;;
38358;SDS011;42072;48.044;14.416;2023-05-07T08:03:01;9.52;;;7.85;;
38358;SDS011;42072;48.044;14.416;2023-05-07T08:05:30;12.45;;;8.93;;
38358;SDS011;42072;48.044;14.416;2023-05-07T08:07:57;11.00;;;8.60;;
38358;SDS011;42072;48.044;14.416;2023-05-07T08:10:24;11.38;;;8.65;;
38358;SDS011;42072;48.044;14.416;2023-05-07T08:12:52;10.98;;;8.50;;
38358;SDS011;42072;48.044;14.416;2023-05-07T08:15:19;9.82;;;8.00;;
38358;SDS011;42072;48.044;14.416;2023-05-07T08:17:46;13.30;;;8.50;;
38358;SDS011;42072;48.044;14.416;2023-05-07T08:20:13;11.43;;;8.68;;
38358;SDS011;42072;48.044;14.416;2023-05-07T08:22:41;12.15;;;9.13;;
38358;SDS011;42072;48.044;14.416;2023-05-07T08:25:08;10.13;;;8.70;;
38358;SDS011;42072;48.044;14.416;2023-05-07T08:27:35;12.82;;;8.80;;
38358;SDS011;42072;48.044;14.416;2023-05-07T08:30:03;13.40;;;8.90;;
38358;SDS011;42072;48.044;14.416;2023-05-07T08:32:31;12.70;;;9.13;;
38358;SDS011;42072;48.044;14.416;2023-05-07T08:34:58;11.43;;;9.00;;
38358;SDS011;42072;48.044;14.416;2023-05-07T08:37:26;11.23;;;9.07;;
38358;SDS011;42072;48.044;14.416;2023-05-07T08:39:53;12.00;;;8.35;;
38358;SDS011;42072;48.044;14.416;2023-05-07T08:42:20;6.68;;;5.93;;
38358;SDS011;42072;48.044;14.416;2023-05-07T08:44:51;13.73;;;9.40;;
38358;SDS011;42072;48.044;14.416;2023-05-07T08:47:22;11.27;;;9.18;;
38358;SDS011;42072;48.044;14.416;2023-05-07T08:49:56;12.95;;;8.57;;
38358;SDS011;42072;48.044;14.416;2023-05-07T08:52:24;11.32;;;8.05;;
38358;SDS011;42072;48.044;14.416;2023-05-07T08:54:52;12.70;;;8.15;;
38358;SDS011;42072;48.044;14.416;2023-05-07T08:57:19;11.32;;;7.32;;
38358;SDS011;42072;48.044;14.416;2023-05-07T08:59:48;9.52;;;7.53;;
38358;SDS011;42072;48.044;14.416;2023-05-07T09:02:15;11.32;;;8.15;;
38358;SDS011;42072;48.044;14.416;2023-05-07T09:04:43;11.98;;;7.35;;
38358;SDS011;42072;48.044;14.416;2023-05-07T09:07:10;10.48;;;8.57;;
38358;SDS011;42072;48.044;14.416;2023-05-07T09:09:37;12.15;;;7.85;;
38358;SDS011;42072;48.044;14.416;2023-05-07T09:12:04;10.88;;;7.68;;
38358;SDS011;42072;48.044;14.416;2023-05-07T09:14:32;10.45;;;7.47;;
38358;SDS011;42072;48.044;14.416;2023-05-07T09:16:59;9.85;;;7.28;;
38358;SDS011;42072;48.044;14.416;2023-05-07T09:19:26;13.48;;;7.65;;
38358;SDS011;42072;48.044;14.416;2023-05-07T09:22:01;10.32;;;7.38;;
38358;SDS011;42072;48.044;14.416;2023-05-07T09:24:30;9.85;;;7.90;;
38358;SDS011;42072;48.044;14.416;2023-05-07T09:27:01;9.75;;;7.55;;
38358;SDS011;42072;48.044;14.416;2023-05-07T09:29:29;10.73;;;7.05;;
38358;SDS011;42072;48.044;14.416;2023-05-07T09:31:59;8.30;;;7.20;;
38358;SDS011;42072;48.044;14.416;2023-05-07T09:34:26;9.25;;;6.93;;
38358;SDS011;42072;48.044;14.416;2023-05-07T09:36:53;11.18;;;7.32;;
38358;SDS011;42072;48.044;14.416;2023-05-07T09:39:21;10.77;;;7.30;;
38358;SDS011;42072;48.044;14.416;2023-05-07T09:41:48;9.18;;;6.68;;
38358;SDS011;42072;48.044;14.416;2023-05-07T09:44:17;7.75;;;6.28;;
38358;SDS011;42072;48.044;14.416;2023-05-07T09:46:44;8.60;;;6.32;;
38358;SDS011;42072;48.044;14.416;2023-05-07T09:49:20;8.80;;;6.70;;
38358;SDS011;42072;48.044;14.416;2023-05-07T09:51:50;7.80;;;6.32;;
38358;SDS011;42072;48.044;14.416;2023-05-07T09:54:18;9.10;;;6.93;;
38358;SDS011;42072;48.044;14.416;2023-05-07T09:56:46;9.60;;;6.75;;
38358;SDS011;42072;48.044;14.416;2023-05-07T09:59:16;9.52;;;6.20;;
38358;SDS011;42072;48.044;14.416;2023-05-07T10:01:44;10.57;;;7.30;;
38358;SDS011;42072;48.044;14.416;2023-05-07T10:04:12;9.38;;;6.90;;
38358;SDS011;42072;48.044;14.416;2023-05-07T10:06:40;8.40;;;7.05;;
38358;SDS011;42072;48.044;14.416;2023-05-07T10:09:10;6.90;;;5.25;;
38358;SDS011;42072;48.044;14.416;2023-05-07T10:11:37;9.68;;;5.65;;
38358;SDS011;42072;48.044;14.416;2023-05-07T10:14:06;6.18;;;4.65;;
38358;SDS011;42072;48.044;14.416;2023-05-07T10:16:34;5.57;;;4.72;;
38358;SDS011;42072;48.044;14.416;2023-05-07T10:19:03;6.90;;;4.38;;
38358;SDS011;42072;48.044;14.416;2023-05-07T10:21:33;5.82;;;4.63;;
38358;SDS011;42072;48.044;14.416;2023-05-07T10:24:04;5.30;;;4.45;;
38358;SDS011;42072;48.044;14.416;2023-05-07T10:26:44;6.20;;;5.00;;
38358;SDS011;42072;48.044;14.416;2023-05-07T10:29:16;6.07;;;4.18;;
38358;SDS011;42072;48.044;14.416;2023-05-07T10:34:25;6.82;;;5.20;;
38358;SDS011;42072;48.044;14.416;2023-05-07T10:36:56;5.63;;;4.65;;
38358;SDS011;42072;48.044;14.416;2023-05-07T10:39:23;6.35;;;5.20;;
38358;SDS011;42072;48.044;14.416;2023-05-07T10:41:51;6.88;;;5.45;;
38358;SDS011;42072;48.044;14.416;2023-05-07T10:44:28;5.53;;;4.60;;
38358;SDS011;42072;48.044;14.416;2023-05-07T10:52:19;6.82;;;4.75;;
38358;SDS011;42072;48.044;14.416;2023-05-07T10:57:51;7.18;;;5.00;;
38358;SDS011;42072;48.044;14.416;2023-05-07T11:03:04;6.43;;;4.93;;
38358;SDS011;42072;48.044;14.416;2023-05-07T11:05:33;5.15;;;4.55;;
38358;SDS011;42072;48.044;14.416;2023-05-07T11:08:04;6.82;;;4.70;;
38358;SDS011;42072;48.044;14.416;2023-05-07T11:10:47;7.82;;;4.82;;
38358;SDS011;42072;48.044;14.416;2023-05-07T11:13:16;6.20;;;5.50;;
38358;SDS011;42072;48.044;14.416;2023-05-07T11:15:45;6.85;;;5.63;;
38358;SDS011;42072;48.044;14.416;2023-05-07T11:18:15;8.50;;;5.22;;
38358;SDS011;42072;48.044;14.416;2023-05-07T11:26:02;6.82;;;5.30;;
38358;SDS011;42072;48.044;14.416;2023-05-07T11:28:32;6.22;;;4.38;;
38358;SDS011;42072;48.044;14.416;2023-05-07T11:31:04;5.63;;;4.60;;
38358;SDS011;42072;48.044;14.416;2023-05-07T11:33:34;6.57;;;4.80;;
38358;SDS011;42072;48.044;14.416;2023-05-07T11:36:02;5.30;;;4.40;;
38358;SDS011;42072;48.044;14.416;2023-05-07T11:38:33;5.38;;;4.07;;
38358;SDS011;42072;48.044;14.416;2023-05-07T11:41:02;5.80;;;4.22;;
38358;SDS011;42072;48.044;14.416;2023-05-07T11:43:32;5.38;;;4.03;;
38358;SDS011;42072;48.044;14.416;2023-05-07T11:46:07;5.53;;;4.32;;
38358;SDS011;42072;48.044;14.416;2023-05-07T11:48:38;4.68;;;4.00;;
38358;SDS011;42072;48.044;14.416;2023-05-07T11:51:06;8.48;;;3.90;;
38358;SDS011;42072;48.044;14.416;2023-05-07T11:56:15;5.70;;;3.67;;
38358;SDS011;42072;48.044;14.416;2023-05-07T11:58:44;5.45;;;3.47;;
38358;SDS011;42072;48.044;14.416;2023-05-07T12:01:12;6.10;;;3.75;;
38358;SDS011;42072;48.044;14.416;2023-05-07T12:03:42;5.15;;;4.35;;
38358;SDS011;42072;48.044;14.416;2023-05-07T12:06:13;4.53;;;4.07;;
38358;SDS011;42072;48.044;14.416;2023-05-07T12:08:42;4.75;;;3.70;;
38358;SDS011;42072;48.044;14.416;2023-05-07T12:11:18;5.80;;;3.50;;
38358;SDS011;42072;48.044;14.416;2023-05-07T12:13:50;7.22;;;4.35;;
38358;SDS011;42072;48.044;14.416;2023-05-07T12:16:17;4.93;;;4.30;;
38358;SDS011;42072;48.044;14.416;2023-05-07T12:18:46;6.35;;;3.70;;
38358;SDS011;42072;48.044;14.416;2023-05-07T12:21:14;4.90;;;3.15;;
38358;SDS011;42072;48.044;14.416;2023-05-07T12:23:44;6.68;;;3.53;;
38358;SDS011;42072;48.044;14.416;2023-05-07T12:26:12;3.13;;;2.83;;
38358;SDS011;42072;48.044;14.416;2023-05-07T12:28:39;4.72;;;3.83;;
38358;SDS011;42072;48.044;14.416;2023-05-07T12:31:07;4.03;;;3.63;;
38358;SDS011;42072;48.044;14.416;2023-05-07T12:33:35;3.60;;;2.78;;
38358;SDS011;42072;48.044;14.416;2023-05-07T12:36:03;6.72;;;3.60;;
38358;SDS011;42072;48.044;14.416;2023-05-07T12:38:40;6.53;;;3.95;;
38358;SDS011;42072;48.044;14.416;2023-05-07T12:41:08;4.32;;;3.40;;
38358;SDS011;42072;48.044;14.416;2023-05-07T12:43:36;5.20;;;4.10;;
38358;SDS011;42072;48.044;14.416;2023-05-07T12:46:05;4.07;;;3.60;;
38358;SDS011;42072;48.044;14.416;2023-05-07T12:48:37;5.53;;;4.10;;
38358;SDS011;42072;48.044;14.416;2023-05-07T12:51:09;4.55;;;3.60;;
38358;SDS011;42072;48.044;14.416;2023-05-07T12:53:42;4.53;;;4.05;;
38358;SDS011;42072;48.044;14.416;2023-05-07T12:56:09;5.72;;;4.50;;
38358;SDS011;42072;48.044;14.416;2023-05-07T12:58:37;5.72;;;4.35;;
38358;SDS011;42072;48.044;14.416;2023-05-07T13:01:05;4.35;;;3.55;;
38358;SDS011;42072;48.044;14.416;2023-05-07T13:03:34;5.93;;;4.40;;
38358;SDS011;42072;48.044;14.416;2023-05-07T13:06:03;6.03;;;4.20;;
38358;SDS011;42072;48.044;14.416;2023-05-07T13:08:37;6.45;;;4.13;;
38358;SDS011;42072;48.044;14.416;2023-05-07T13:13:39;4.15;;;3.72;;
38358;SDS011;42072;48.044;14.416;2023-05-07T13:16:07;4.45;;;3.35;;
38358;SDS011;42072;48.044;14.416;2023-05-07T13:18:37;4.90;;;3.90;;
38358;SDS011;42072;48.044;14.416;2023-05-07T13:21:05;6.03;;;4.75;;
38358;SDS011;42072;48.044;14.416;2023-05-07T13:23:33;4.70;;;4.13;;
38358;SDS011;42072;48.044;14.416;2023-05-07T13:26:00;5.63;;;4.80;;
38358;SDS011;42072;48.044;14.416;2023-05-07T13:28:40;6.53;;;5.38;;
38358;SDS011;42072;48.044;14.416;2023-05-07T13:31:08;6.22;;;4.40;;
38358;SDS011;42072;48.044;14.416;2023-05-07T13:33:36;6.53;;;5.05;;
38358;SDS011;42072;48.044;14.416;2023-05-07T13:36:03;6.10;;;5.30;;
38358;SDS011;42072;48.044;14.416;2023-05-07T13:38:32;7.22;;;5.68;;
38358;SDS011;42072;48.044;14.416;2023-05-07T13:40:59;7.95;;;5.20;;
38358;SDS011;42072;48.044;14.416;2023-05-07T13:43:26;5.95;;;5.18;;
38358;SDS011;42072;48.044;14.416;2023-05-07T13:45:53;6.45;;;5.43;;
38358;SDS011;42072;48.044;14.416;2023-05-07T13:48:21;8.68;;;5.57;;
38358;SDS011;42072;48.044;14.416;2023-05-07T13:50:48;6.97;;;5.70;;
38358;SDS011;42072;48.044;14.416;2023-05-07T13:53:15;8.75;;;5.18;;
38358;SDS011;42072;48.044;14.416;2023-05-07T13:55:46;7.63;;;5.45;;
38358;SDS011;42072;48.044;14.416;2023-05-07T13:58:13;7.30;;;5.55;;
38358;SDS011;42072;48.044;14.416;2023-05-07T14:00:40;9.38;;;6.28;;
38358;SDS011;42072;48.044;14.416;2023-05-07T14:03:07;7.03;;;5.20;;
38358;SDS011;42072;48.044;14.416;2023-05-07T14:05:35;7.10;;;5.45;;
38358;SDS011;42072;48.044;14.416;2023-05-07T14:08:02;6.63;;;5.70;;
38358;SDS011;42072;48.044;14.416;2023-05-07T14:10:30;8.65;;;6.55;;
38358;SDS011;42072;48.044;14.416;2023-05-07T14:13:00;8.32;;;6.10;;
38358;SDS011;42072;48.044;14.416;2023-05-07T14:15:28;7.70;;;6.88;;
38358;SDS011;42072;48.044;14.416;2023-05-07T14:17:55;9.27;;;7.00;;
38358;SDS011;42072;48.044;14.416;2023-05-07T14:20:24;8.30;;;6.25;;
38358;SDS011;42072;48.044;14.416;2023-05-07T14:22:51;8.48;;;7.10;;
38358;SDS011;42072;48.044;14.416;2023-05-07T14:25:18;9.82;;;7.18;;
38358;SDS011;42072;48.044;14.416;2023-05-07T14:27:45;9.70;;;6.75;;
38358;SDS011;42072;48.044;14.416;2023-05-07T14:30:13;8.95;;;7.30;;
38358;SDS011;42072;48.044;14.416;2023-05-07T14:32:40;9.55;;;7.53;;
38358;SDS011;42072;48.044;14.416;2023-05-07T14:35:07;10.05;;;7.80;;
38358;SDS011;42072;48.044;14.416;2023-05-07T14:37:35;10.18;;;7.95;;
38358;SDS011;42072;48.044;14.416;2023-05-07T14:40:02;9.88;;;8.02;;
38358;SDS011;42072;48.044;14.416;2023-05-07T14:42:29;11.77;;;8.73;;
38358;SDS011;42072;48.044;14.416;2023-05-07T14:44:57;12.77;;;8.45;;
38358;SDS011;42072;48.044;14.416;2023-05-07T14:47:24;11.73;;;8.38;;
38358;SDS011;42072;48.044;14.416;2023-05-07T14:49:51;11.68;;;8.75;;
38358;SDS011;42072;48.044;14.416;2023-05-07T14:52:19;9.20;;;7.60;;
38358;SDS011;42072;48.044;14.416;2023-05-07T14:54:47;12.35;;;8.65;;
38358;SDS011;42072;48.044;14.416;2023-05-07T14:57:14;10.63;;;7.65;;
38358;SDS011;42072;48.044;14.416;2023-05-07T14:59:42;11.18;;;7.35;;